createdAt,value
2017-10-20T00:02:30.228Z,71.60
2017-10-20T00:05:03.880Z,70.80
2017-10-20T00:07:38.625Z,71.30
2017-10-20T00:10:12.511Z,71.00
2017-10-20T00:12:46.368Z,70.80
2017-10-20T00:15:20.155Z,70.80
2017-10-20T00:17:54.956Z,71.40
2017-10-20T00:20:28.886Z,70.70
2017-10-20T00:23:03.499Z,71.60
2017-10-20T00:25:37.319Z,71.00
2017-10-20T00:28:11.735Z,71.90
2017-10-20T00:30:45.851Z,71.80
2017-10-20T00:33:20.397Z,72.20
2017-10-20T00:35:55.771Z,72.20
2017-10-20T00:38:29.531Z,72.20
2017-10-20T00:41:03.305Z,71.90
2017-10-20T00:43:37.778Z,72.30
2017-10-20T00:46:12.370Z,72.70
2017-10-20T00:48:46.164Z,72.60
2017-10-20T00:51:19.842Z,72.20
2017-10-20T00:53:53.539Z,71.60
2017-10-20T00:56:27.878Z,72.00
2017-10-20T00:59:01.511Z,72.70
2017-10-20T01:01:36.048Z,72.50
2017-10-20T01:04:09.616Z,72.40
2017-10-20T01:06:43.830Z,72.80
2017-10-20T01:09:17.944Z,73.40
2017-10-20T01:11:51.702Z,72.30
2017-10-20T01:14:25.549Z,72.10
2017-10-20T01:16:59.361Z,72.10
2017-10-20T01:19:34.114Z,72.70
2017-10-20T01:22:08.400Z,72.50
2017-10-20T01:24:42.192Z,72.70
2017-10-20T01:27:15.976Z,72.50
2017-10-20T01:29:49.804Z,72.40
2017-10-20T01:32:24.313Z,72.80
2017-10-20T01:34:59.748Z,72.50
2017-10-20T01:37:33.428Z,71.60
2017-10-20T01:40:07.251Z,72.50
2017-10-20T01:42:41.864Z,72.30
2017-10-20T01:45:15.617Z,71.80
2017-10-20T01:47:49.274Z,71.50
2017-10-20T01:50:23.144Z,71.70
2017-10-20T01:52:57.845Z,72.40
2017-10-20T01:55:31.590Z,71.80
2017-10-20T01:58:05.273Z,71.90
2017-10-20T02:00:39.836Z,72.50
2017-10-20T02:03:13.691Z,71.50
2017-10-20T02:05:47.528Z,72.30
2017-10-20T02:08:21.181Z,72.20
2017-10-20T02:10:54.906Z,71.00
2017-10-20T02:13:29.489Z,71.50
2017-10-20T02:16:03.223Z,71.30
2017-10-20T02:18:37.029Z,71.90
2017-10-20T02:21:10.878Z,71.60
2017-10-20T02:23:45.454Z,72.40
2017-10-20T02:26:19.126Z,71.90
2017-10-20T02:28:53.622Z,72.20
2017-10-20T02:31:27.299Z,72.10
2017-10-20T02:34:01.150Z,72.00
2017-10-20T02:36:34.952Z,71.50
2017-10-20T02:39:08.656Z,71.00
2017-10-20T02:41:43.826Z,72.30
2017-10-20T02:44:17.737Z,72.30
2017-10-20T02:46:51.382Z,73.40
2017-10-20T02:49:25.948Z,74.30
2017-10-20T02:52:00.061Z,74.20
2017-10-20T02:54:33.822Z,73.80
2017-10-20T02:57:07.594Z,72.70
2017-10-20T02:59:41.454Z,73.20
2017-10-20T03:02:15.276Z,74.00
2017-10-20T03:04:48.900Z,74.00
2017-10-20T03:07:23.288Z,75.10
2017-10-20T03:09:57.048Z,75.00
2017-10-20T03:12:30.625Z,74.50
2017-10-20T03:15:05.222Z,75.30
2017-10-20T03:17:38.827Z,75.10
2017-10-20T03:20:12.530Z,74.80
2017-10-20T03:22:49.696Z,75.10
2017-10-20T03:25:23.948Z,75.00
2017-10-20T03:27:58.484Z,75.20
2017-10-20T03:30:32.581Z,75.10
2017-10-20T03:33:07.046Z,74.70
2017-10-20T03:35:40.878Z,74.90
2017-10-20T03:38:14.641Z,74.50
2017-10-20T03:40:49.682Z,75.30
2017-10-20T03:43:23.407Z,75.00
2017-10-20T03:45:57.193Z,75.40
2017-10-20T03:48:30.794Z,76.20
2017-10-20T03:51:05.159Z,76.10
2017-10-20T03:53:38.835Z,76.10
2017-10-20T03:56:12.672Z,76.80
2017-10-20T03:58:48.097Z,77.40
2017-10-20T04:01:22.965Z,77.20
2017-10-20T04:03:57.662Z,77.00
2017-10-20T04:06:31.339Z,76.90
2017-10-20T04:09:07.878Z,76.70
2017-10-20T04:11:41.807Z,76.70
2017-10-20T04:14:15.623Z,77.80
2017-10-20T04:16:49.385Z,78.50
2017-10-20T04:19:24.124Z,78.40
2017-10-20T04:21:57.742Z,77.20
2017-10-20T04:24:31.300Z,77.50
2017-10-20T04:27:05.171Z,78.20
2017-10-20T04:29:39.052Z,78.00
2017-10-20T04:32:12.648Z,77.60
2017-10-20T04:34:46.450Z,77.40
2017-10-20T04:37:20.229Z,76.20
2017-10-20T04:39:54.107Z,76.40
2017-10-20T04:42:27.795Z,76.30
2017-10-20T04:45:01.535Z,76.60
2017-10-20T04:47:35.406Z,76.60
2017-10-20T04:50:09.715Z,76.80
2017-10-20T04:52:43.460Z,76.90
2017-10-20T04:55:17.158Z,77.00
2017-10-20T04:57:50.889Z,77.10
2017-10-20T05:00:25.407Z,77.70
2017-10-20T05:02:59.228Z,76.70
2017-10-20T05:05:32.951Z,76.50
2017-10-20T05:08:06.743Z,77.20
2017-10-20T05:10:40.618Z,76.50
2017-10-20T05:13:14.441Z,76.10
2017-10-20T05:15:48.892Z,76.80
2017-10-20T05:18:22.598Z,76.60
2017-10-20T05:20:56.356Z,76.40
2017-10-20T05:23:30.216Z,75.60
2017-10-20T05:26:03.844Z,75.40
2017-10-20T05:28:37.541Z,75.50
2017-10-20T05:31:11.350Z,75.40
2017-10-20T05:33:45.051Z,75.40
2017-10-20T05:36:18.807Z,75.70
2017-10-20T05:38:53.503Z,76.10
2017-10-20T05:41:27.965Z,75.10
2017-10-20T05:44:01.700Z,75.70
2017-10-20T05:46:36.049Z,74.30
2017-10-20T05:49:10.737Z,75.00
2017-10-20T05:51:44.463Z,75.60
2017-10-20T05:54:19.171Z,76.00
2017-10-20T05:56:53.169Z,75.70
2017-10-20T05:59:27.044Z,76.00
2017-10-20T06:02:01.621Z,76.40
2017-10-20T06:04:35.279Z,76.30
2017-10-20T06:07:09.016Z,75.60
2017-10-20T06:09:42.836Z,75.50
2017-10-20T06:12:16.585Z,76.30
2017-10-20T06:14:50.335Z,76.10
2017-10-20T06:17:42.067Z,76.60
2017-10-20T06:20:16.772Z,76.50
2017-10-20T06:22:50.395Z,76.80
2017-10-20T06:25:24.138Z,76.60
2017-10-20T06:27:58.501Z,76.80
2017-10-20T06:30:32.462Z,76.60
2017-10-20T06:33:06.205Z,76.20
2017-10-20T06:35:40.730Z,76.60
2017-10-20T06:38:14.482Z,76.50
2017-10-20T06:40:48.361Z,77.00
2017-10-20T06:43:22.272Z,77.70
2017-10-20T06:45:57.064Z,79.60
2017-10-20T06:48:32.223Z,81.60
2017-10-20T06:51:05.879Z,81.40
2017-10-20T06:53:41.542Z,81.70
2017-10-20T06:56:15.727Z,80.50
2017-10-20T06:58:50.149Z,81.10
2017-10-20T07:01:24.028Z,81.20
2017-10-20T07:03:57.862Z,80.80
2017-10-20T07:06:31.590Z,83.70
2017-10-20T07:09:06.223Z,82.70
2017-10-20T07:11:40.758Z,84.00
2017-10-20T07:14:15.298Z,83.40
2017-10-20T07:16:49.683Z,81.40
2017-10-20T07:19:44.213Z,81.70
2017-10-20T07:22:18.787Z,81.60
2017-10-20T07:24:53.532Z,81.60
2017-10-20T07:27:28.512Z,81.80
2017-10-20T07:30:02.524Z,80.00
2017-10-20T07:32:37.186Z,80.20
2017-10-20T07:35:11.022Z,80.10
2017-10-20T07:37:44.730Z,80.30
2017-10-20T07:40:19.419Z,79.80
2017-10-20T07:42:53.033Z,81.70
2017-10-20T07:45:27.473Z,79.10
2017-10-20T07:48:02.727Z,79.90
2017-10-20T07:50:37.375Z,78.90
2017-10-20T07:53:11.900Z,78.70
2017-10-20T07:55:45.896Z,78.60
2017-10-20T07:58:21.111Z,78.30
2017-10-20T08:00:55.956Z,77.40
2017-10-20T08:03:31.066Z,78.10
2017-10-20T08:06:05.015Z,78.00
2017-10-20T08:08:38.643Z,77.20
2017-10-20T08:11:13.349Z,76.70
2017-10-20T08:13:47.845Z,75.50
2017-10-20T08:16:22.198Z,75.00
2017-10-20T08:18:56.690Z,72.40
2017-10-20T08:21:30.453Z,72.30
2017-10-20T08:24:04.175Z,70.80
2017-10-20T08:26:38.070Z,72.90
2017-10-20T08:29:11.814Z,71.80
2017-10-20T08:31:45.605Z,67.50
2017-10-20T08:34:20.172Z,63.90
2017-10-20T08:36:53.776Z,63.80
2017-10-20T08:39:27.500Z,65.30
2017-10-20T08:42:01.058Z,65.50
2017-10-20T08:44:35.508Z,65.00
2017-10-20T08:47:09.290Z,64.90
2017-10-20T08:49:42.855Z,65.20
2017-10-20T08:52:17.471Z,65.10
2017-10-20T08:54:51.388Z,65.10
2017-10-20T08:57:25.709Z,65.90
2017-10-20T09:00:00.133Z,65.60
2017-10-20T09:02:33.760Z,65.50
2017-10-20T09:05:07.441Z,64.10
2017-10-20T09:07:41.992Z,62.80
2017-10-20T09:10:15.664Z,62.80
2017-10-20T09:12:49.313Z,62.70
2017-10-20T09:15:23.022Z,61.10
2017-10-20T09:17:56.808Z,61.10
2017-10-20T09:20:30.562Z,60.00
2017-10-20T09:23:04.086Z,60.40
2017-10-20T09:25:37.744Z,60.10
2017-10-20T09:28:11.497Z,60.70
2017-10-20T09:30:45.103Z,59.60
2017-10-20T09:33:18.870Z,57.80
2017-10-20T09:35:52.444Z,59.10
2017-10-20T09:38:26.393Z,62.30
2017-10-20T09:41:00.107Z,62.20
2017-10-20T09:43:34.016Z,58.20
2017-10-20T09:46:08.660Z,59.90
2017-10-20T09:48:42.404Z,59.70
2017-10-20T09:51:16.863Z,55.40
2017-10-20T09:53:50.463Z,55.40
2017-10-20T09:56:24.273Z,54.70
2017-10-20T09:58:57.868Z,54.80
2017-10-20T10:01:31.661Z,52.50
2017-10-20T10:04:05.204Z,53.00
2017-10-20T10:06:38.768Z,52.60
2017-10-20T10:09:13.085Z,52.80
2017-10-20T10:11:46.769Z,52.80
2017-10-20T10:14:20.445Z,53.00
2017-10-20T10:16:53.981Z,51.10
2017-10-20T10:19:27.668Z,51.60
2017-10-20T10:22:01.472Z,51.70
2017-10-20T10:24:35.313Z,53.50
2017-10-20T10:27:08.900Z,53.30
2017-10-20T10:29:42.617Z,49.90
2017-10-20T10:32:16.962Z,49.80
2017-10-20T10:34:51.329Z,50.20
2017-10-20T10:37:24.912Z,50.10
2017-10-20T10:39:58.469Z,49.70
2017-10-20T10:42:33.066Z,48.70
2017-10-20T10:45:06.866Z,48.70
2017-10-20T10:47:40.413Z,49.00
2017-10-20T10:50:14.012Z,49.40
2017-10-20T10:52:47.812Z,49.00
2017-10-20T10:55:21.395Z,49.20
2017-10-20T10:57:55.071Z,49.70
2017-10-20T11:00:28.657Z,49.40
2017-10-20T11:03:02.313Z,49.70
2017-10-20T11:05:47.928Z,50.10
2017-10-20T11:08:34.340Z,53.20
2017-10-20T11:11:19.997Z,53.20
2017-10-20T11:13:54.445Z,49.60
2017-10-20T11:16:28.045Z,49.60
2017-10-20T11:19:02.682Z,50.70
2017-10-20T11:21:36.384Z,50.50
2017-10-20T11:24:09.922Z,53.80
2017-10-20T11:26:44.283Z,54.80
2017-10-20T11:29:17.899Z,54.70
2017-10-20T11:31:51.634Z,54.20
2017-10-20T11:34:25.992Z,51.10
2017-10-20T11:36:59.771Z,51.10
2017-10-20T11:39:34.125Z,53.40
2017-10-20T11:42:07.964Z,53.00
2017-10-20T11:44:41.686Z,50.80
2017-10-20T11:47:15.472Z,51.90
2017-10-20T11:49:49.049Z,52.00
2017-10-20T11:52:22.898Z,50.80
2017-10-20T11:54:57.360Z,49.50
2017-10-20T11:57:31.797Z,50.10
2017-10-20T12:00:05.511Z,50.10
2017-10-20T12:02:39.904Z,51.00
2017-10-20T12:05:13.481Z,50.90
2017-10-20T12:07:47.309Z,48.50
2017-10-20T12:10:21.667Z,49.60
2017-10-20T12:12:55.364Z,49.50
2017-10-20T12:15:28.984Z,48.50
2017-10-20T12:18:02.604Z,49.00
2017-10-20T12:20:36.329Z,49.80
2017-10-20T12:23:09.932Z,48.90
2017-10-20T12:25:44.501Z,48.10
2017-10-20T12:28:19.226Z,48.00
2017-10-20T12:30:53.711Z,48.10
2017-10-20T12:33:28.178Z,48.60
2017-10-20T12:36:01.882Z,48.50
2017-10-20T12:38:35.712Z,47.10
2017-10-20T12:41:09.517Z,45.40
2017-10-20T12:43:43.325Z,45.20
2017-10-20T12:46:17.140Z,46.10
2017-10-20T12:48:50.903Z,46.20
2017-10-20T12:51:25.449Z,44.10
2017-10-20T12:53:59.868Z,45.40
2017-10-20T12:56:33.580Z,45.30
2017-10-20T12:59:07.371Z,44.70
2017-10-20T13:01:41.231Z,45.60
2017-10-20T13:04:15.745Z,47.50
2017-10-20T13:06:49.362Z,47.50
2017-10-20T13:09:23.194Z,47.90
2017-10-20T13:11:56.847Z,48.30
2017-10-20T13:14:30.489Z,47.20
2017-10-20T13:17:04.309Z,47.40
2017-10-20T13:19:38.061Z,47.70
2017-10-20T13:22:11.865Z,47.60
2017-10-20T13:24:46.458Z,46.60
2017-10-20T13:27:20.230Z,46.60
2017-10-20T13:29:54.808Z,46.50
2017-10-20T13:32:28.467Z,46.40
2017-10-20T13:35:02.110Z,46.80
2017-10-20T13:37:35.698Z,46.30
2017-10-20T13:40:09.409Z,47.20
2017-10-20T13:42:43.229Z,46.30
2017-10-20T13:45:17.743Z,44.60
2017-10-20T13:47:51.574Z,44.40
2017-10-20T13:50:25.253Z,44.20
2017-10-20T13:52:58.848Z,42.70
2017-10-20T13:55:32.467Z,43.30
2017-10-20T13:58:06.183Z,44.50
2017-10-20T14:00:40.587Z,45.20
2017-10-20T14:03:14.982Z,46.90
2017-10-20T14:05:48.603Z,46.80
2017-10-20T14:08:22.114Z,46.10
2017-10-20T14:10:55.835Z,46.40
2017-10-20T14:13:30.371Z,47.40
2017-10-20T14:16:04.182Z,47.00
2017-10-20T14:18:38.833Z,45.20
2017-10-20T14:21:13.257Z,45.10
2017-10-20T14:23:47.772Z,44.20
2017-10-20T14:26:21.478Z,43.40
2017-10-20T14:28:55.197Z,42.80
2017-10-20T14:31:28.801Z,43.40
2017-10-20T14:34:02.643Z,44.50
2017-10-20T14:36:36.299Z,46.30
2017-10-20T14:39:10.148Z,47.20
2017-10-20T14:41:44.766Z,47.00
2017-10-20T14:44:18.437Z,46.80
2017-10-20T14:46:52.075Z,47.40
2017-10-20T14:49:26.651Z,48.80
2017-10-20T14:52:00.387Z,47.80
2017-10-20T14:54:34.026Z,48.20
2017-10-20T14:57:07.807Z,48.80
2017-10-20T14:59:41.491Z,48.30
2017-10-20T15:02:16.115Z,48.60
2017-10-20T15:04:50.626Z,48.60
2017-10-20T15:07:24.330Z,48.50
2017-10-20T15:09:57.985Z,47.90
2017-10-20T15:12:31.793Z,47.40
2017-10-20T15:15:05.446Z,47.40
2017-10-20T15:17:39.235Z,46.90
2017-10-20T15:20:12.824Z,47.60
2017-10-20T15:22:46.524Z,48.70
2017-10-20T15:25:20.223Z,47.80
2017-10-20T15:27:54.023Z,46.90
2017-10-20T15:30:28.541Z,48.20
2017-10-20T15:33:02.306Z,48.20
2017-10-20T15:35:36.104Z,48.80
2017-10-20T15:38:09.857Z,49.10
2017-10-20T15:40:43.562Z,49.70
2017-10-20T15:43:17.148Z,50.20
2017-10-20T15:45:50.796Z,50.30
2017-10-20T15:48:24.614Z,50.50
2017-10-20T15:50:58.441Z,51.00
2017-10-20T15:53:32.077Z,52.30
2017-10-20T15:56:05.888Z,53.10
2017-10-20T15:58:40.449Z,54.10
2017-10-20T16:01:14.105Z,54.10
2017-10-20T16:03:48.023Z,55.00
2017-10-20T16:06:21.639Z,55.60
2017-10-20T16:08:55.286Z,55.90
2017-10-20T16:11:28.874Z,55.80
2017-10-20T16:14:03.257Z,55.50
2017-10-20T16:16:36.982Z,55.50
2017-10-20T16:19:10.604Z,55.70
2017-10-20T16:21:44.207Z,55.70
2017-10-20T16:24:18.794Z,56.70
2017-10-20T16:26:52.532Z,56.60
2017-10-20T16:29:26.395Z,57.00
2017-10-20T16:32:01.441Z,57.50
2017-10-20T16:34:35.216Z,58.30
2017-10-20T16:37:08.969Z,58.40
2017-10-20T16:39:42.721Z,58.30
2017-10-20T16:42:16.658Z,57.90
2017-10-20T16:44:51.132Z,55.10
2017-10-20T16:47:25.570Z,55.20
2017-10-20T16:50:00.939Z,54.30
2017-10-20T16:52:34.531Z,54.20
2017-10-20T16:55:08.173Z,54.60
2017-10-20T16:57:41.992Z,54.00
2017-10-20T17:00:15.809Z,53.80
2017-10-20T17:02:49.431Z,53.40
2017-10-20T17:05:23.084Z,53.80
2017-10-20T17:07:56.688Z,54.20
2017-10-20T17:10:31.344Z,54.90
2017-10-20T17:13:05.229Z,54.90
2017-10-20T17:15:39.806Z,55.50
2017-10-20T17:18:14.227Z,55.60
2017-10-20T17:20:48.740Z,56.00
2017-10-20T17:23:22.582Z,55.90
2017-10-20T17:25:56.349Z,56.30
2017-10-20T17:28:30.023Z,56.30
2017-10-20T17:31:03.809Z,56.60
2017-10-20T17:33:37.556Z,56.70
2017-10-20T17:36:11.141Z,57.10
2017-10-20T17:38:45.745Z,57.60
2017-10-20T17:41:20.168Z,58.10
2017-10-20T17:43:53.910Z,57.80
2017-10-20T17:46:27.596Z,58.30
2017-10-20T17:49:01.490Z,58.10
2017-10-20T17:51:35.182Z,58.00
2017-10-20T17:54:08.958Z,58.50
2017-10-20T17:56:42.803Z,58.70
2017-10-20T17:59:16.585Z,59.00
2017-10-20T18:01:50.389Z,58.80
2017-10-20T18:04:24.902Z,59.70
2017-10-20T18:06:58.608Z,59.30
2017-10-20T18:09:32.165Z,59.30
2017-10-20T18:12:06.134Z,59.30
2017-10-20T18:14:39.919Z,58.80
2017-10-20T18:17:13.585Z,59.30
2017-10-20T18:19:47.226Z,59.60
2017-10-20T18:22:20.811Z,59.90
2017-10-20T18:24:54.419Z,60.30
2017-10-20T18:27:28.991Z,61.50
2017-10-20T18:30:02.632Z,61.40
2017-10-20T18:32:36.311Z,61.50
2017-10-20T18:35:10.060Z,61.60
2017-10-20T18:37:43.846Z,61.70
2017-10-20T18:40:17.621Z,61.60
2017-10-20T18:42:51.340Z,61.60
2017-10-20T18:45:25.152Z,61.90
2017-10-20T18:47:59.710Z,62.10
2017-10-20T18:50:33.389Z,62.10
2017-10-20T18:53:07.059Z,62.40
2017-10-20T18:55:40.779Z,61.80
2017-10-20T18:58:15.023Z,62.60
2017-10-20T19:00:48.700Z,62.60
2017-10-20T19:03:22.360Z,63.10
2017-10-20T19:05:56.020Z,63.40
2017-10-20T19:08:29.624Z,63.50
2017-10-20T19:11:03.133Z,63.60
2017-10-20T19:13:36.783Z,63.50
2017-10-20T19:16:10.603Z,63.10
2017-10-20T19:18:45.267Z,63.90
2017-10-20T19:21:18.981Z,63.80
2017-10-20T19:23:52.601Z,63.00
2017-10-20T19:26:26.324Z,63.70
2017-10-20T19:28:59.976Z,63.70
2017-10-20T19:31:33.774Z,64.10
2017-10-20T19:34:07.634Z,64.70
2017-10-20T19:36:41.367Z,64.00
2017-10-20T19:39:15.004Z,64.90
2017-10-20T19:41:48.705Z,64.20
2017-10-20T19:44:23.151Z,64.80
2017-10-20T19:46:57.653Z,64.50
2017-10-20T19:49:31.533Z,64.40
2017-10-20T19:52:05.649Z,63.90
2017-10-20T19:54:39.457Z,64.50
2017-10-20T19:57:13.266Z,64.70
2017-10-20T19:59:46.960Z,65.50
2017-10-20T20:02:21.371Z,65.80
2017-10-20T20:04:54.957Z,65.60
2017-10-20T20:07:29.022Z,65.30
2017-10-20T20:10:03.504Z,66.20
2017-10-20T20:12:37.271Z,65.30
2017-10-20T20:15:10.958Z,65.40
2017-10-20T20:17:44.856Z,65.90
2017-10-20T20:20:19.477Z,65.90
2017-10-20T20:22:53.980Z,65.80
2017-10-20T20:25:28.617Z,66.00
2017-10-20T20:28:03.090Z,65.80
2017-10-20T20:30:36.832Z,65.70
2017-10-20T20:33:16.171Z,65.80
2017-10-20T20:35:50.795Z,66.20
2017-10-20T20:38:24.560Z,65.40
2017-10-20T20:40:58.206Z,66.30
2017-10-20T20:43:31.887Z,66.80
2017-10-20T20:46:05.704Z,67.00
2017-10-20T20:48:40.321Z,67.10
2017-10-20T20:51:14.106Z,67.00
2017-10-20T20:53:47.898Z,66.30
2017-10-20T20:56:22.342Z,67.20
2017-10-20T20:58:56.124Z,66.60
2017-10-20T21:01:29.897Z,67.30
2017-10-20T21:04:03.649Z,67.20
2017-10-20T21:06:37.536Z,66.90
2017-10-20T21:09:11.263Z,66.80
2017-10-20T21:11:45.098Z,66.60
2017-10-20T21:14:18.913Z,66.80
2017-10-20T21:16:52.681Z,67.90
2017-10-20T21:19:26.428Z,67.70
2017-10-20T21:22:01.060Z,67.80
2017-10-20T21:24:35.605Z,68.20
2017-10-20T21:27:10.084Z,68.10
2017-10-20T21:29:43.828Z,67.90
2017-10-20T21:32:17.655Z,68.40
2017-10-20T21:34:51.387Z,68.50
2017-10-20T21:37:24.985Z,68.10
2017-10-20T21:39:58.632Z,68.30
2017-10-20T21:42:32.404Z,68.00
2017-10-20T21:45:06.172Z,67.60
2017-10-20T21:47:40.027Z,68.30
2017-10-20T21:50:13.857Z,68.70
2017-10-20T21:52:47.464Z,68.90
2017-10-20T21:55:21.191Z,69.20
2017-10-20T21:57:55.047Z,69.00
2017-10-20T22:00:29.499Z,68.80
2017-10-20T22:03:04.045Z,68.90
2017-10-20T22:05:37.757Z,68.70
2017-10-20T22:08:11.461Z,69.20
2017-10-20T22:10:45.960Z,69.00
2017-10-20T22:13:20.471Z,69.00
2017-10-20T22:15:54.294Z,68.30
2017-10-20T22:18:28.931Z,69.20
2017-10-20T22:21:03.422Z,70.20
2017-10-20T22:23:37.190Z,68.60
2017-10-20T22:26:10.838Z,69.10
2017-10-20T22:28:44.726Z,69.40
2017-10-20T22:31:19.269Z,70.00
2017-10-20T22:33:52.970Z,69.90
2017-10-20T22:36:26.760Z,70.20
2017-10-20T22:39:00.499Z,70.30
2017-10-20T22:41:34.312Z,70.30
2017-10-20T22:44:08.716Z,70.50
2017-10-20T22:46:43.201Z,70.90
2017-10-20T22:49:16.959Z,70.70
2017-10-20T22:51:50.658Z,71.30
2017-10-20T22:54:25.245Z,71.40
2017-10-20T22:56:58.944Z,71.20
2017-10-20T22:59:32.759Z,71.10
2017-10-20T23:02:06.425Z,70.10
2017-10-20T23:04:40.227Z,69.90
2017-10-20T23:07:14.620Z,70.70
2017-10-20T23:09:49.061Z,70.90
2017-10-20T23:12:22.704Z,69.80
2017-10-20T23:14:56.311Z,69.70
2017-10-20T23:17:30.811Z,70.40
2017-10-20T23:20:04.686Z,70.40
2017-10-20T23:22:38.471Z,70.00
2017-10-20T23:25:12.320Z,70.20
2017-10-20T23:27:46.654Z,70.30
2017-10-20T23:30:20.239Z,71.50
2017-10-20T23:32:54.028Z,71.70
2017-10-20T23:35:28.579Z,72.50
2017-10-20T23:38:02.362Z,72.40
2017-10-20T23:40:36.263Z,73.40
2017-10-20T23:43:10.899Z,73.30
2017-10-20T23:45:44.673Z,73.20
2017-10-20T23:48:18.358Z,73.50
2017-10-20T23:50:52.867Z,72.60
2017-10-20T23:53:26.592Z,72.60
2017-10-20T23:56:00.157Z,72.70
2017-10-20T23:58:33.964Z,72.90
